sensor_id;sensor_type;location;lat;lon;timestamp;P1;durP1;ratioP1;P2;durP2;ratioP2
81627;SDS011;71036;51.102;6.514;2024-02-14T00:01:54;1.97;;;0.67;;
81627;SDS011;71036;51.102;6.514;2024-02-14T00:04:20;3.40;;;1.07;;
81627;SDS011;71036;51.102;6.514;2024-02-14T00:06:46;2.50;;;1.10;;
81627;SDS011;71036;51.102;6.514;2024-02-14T00:09:11;1.17;;;0.73;;
81627;SDS011;71036;51.102;6.514;2024-02-14T00:11:36;4.50;;;0.87;;
81627;SDS011;71036;51.102;6.514;2024-02-14T00:14:02;2.83;;;0.70;;
81627;SDS011;71036;51.102;6.514;2024-02-14T00:16:27;5.00;;;0.70;;
81627;SDS011;71036;51.102;6.514;2024-02-14T00:18:55;5.90;;;0.70;;
81627;SDS011;71036;51.102;6.514;2024-02-14T00:21:21;1.40;;;0.70;;
81627;SDS011;71036;51.102;6.514;2024-02-14T00:23:47;1.87;;;0.77;;
81627;SDS011;71036;51.102;6.514;2024-02-14T00:26:12;1.67;;;0.87;;
81627;SDS011;71036;51.102;6.514;2024-02-14T00:28:38;5.63;;;0.77;;
81627;SDS011;71036;51.102;6.514;2024-02-14T00:31:03;0.50;;;0.30;;
81627;SDS011;71036;51.102;6.514;2024-02-14T00:33:28;2.20;;;0.80;;
81627;SDS011;71036;51.102;6.514;2024-02-14T00:35:54;1.00;;;0.90;;
81627;SDS011;71036;51.102;6.514;2024-02-14T00:38:19;3.67;;;0.93;;
81627;SDS011;71036;51.102;6.514;2024-02-14T00:40:44;3.00;;;0.83;;
81627;SDS011;71036;51.102;6.514;2024-02-14T00:43:09;2.00;;;0.63;;
81627;SDS011;71036;51.102;6.514;2024-02-14T00:45:35;1.53;;;1.00;;
81627;SDS011;71036;51.102;6.514;2024-02-14T00:48:03;2.13;;;0.67;;
81627;SDS011;71036;51.102;6.514;2024-02-14T00:50:28;0.90;;;0.60;;
81627;SDS011;71036;51.102;6.514;2024-02-14T00:52:54;1.77;;;0.80;;
81627;SDS011;71036;51.102;6.514;2024-02-14T00:55:19;1.00;;;0.70;;
81627;SDS011;71036;51.102;6.514;2024-02-14T00:57:44;1.33;;;0.50;;
81627;SDS011;71036;51.102;6.514;2024-02-14T01:00:10;1.13;;;0.73;;
81627;SDS011;71036;51.102;6.514;2024-02-14T01:02:35;4.00;;;0.60;;
81627;SDS011;71036;51.102;6.514;2024-02-14T01:05:00;1.13;;;0.60;;
81627;SDS011;71036;51.102;6.514;2024-02-14T01:07:27;2.20;;;0.50;;
81627;SDS011;71036;51.102;6.514;2024-02-14T01:09:52;2.60;;;0.50;;
81627;SDS011;71036;51.102;6.514;2024-02-14T01:12:17;2.20;;;0.63;;
81627;SDS011;71036;51.102;6.514;2024-02-14T01:14:43;3.23;;;0.77;;
81627;SDS011;71036;51.102;6.514;2024-02-14T01:17:08;5.77;;;0.70;;
81627;SDS011;71036;51.102;6.514;2024-02-14T01:19:33;4.00;;;0.70;;
81627;SDS011;71036;51.102;6.514;2024-02-14T01:21:59;1.50;;;0.80;;
81627;SDS011;71036;51.102;6.514;2024-02-14T01:24:24;2.50;;;0.50;;
81627;SDS011;71036;51.102;6.514;2024-02-14T01:26:51;1.10;;;0.50;;
81627;SDS011;71036;51.102;6.514;2024-02-14T01:29:20;3.00;;;0.60;;
81627;SDS011;71036;51.102;6.514;2024-02-14T01:31:45;1.47;;;0.60;;
81627;SDS011;71036;51.102;6.514;2024-02-14T01:34:11;1.10;;;0.80;;
81627;SDS011;71036;51.102;6.514;2024-02-14T01:36:36;2.00;;;0.80;;
81627;SDS011;71036;51.102;6.514;2024-02-14T01:39:03;4.63;;;1.10;;
81627;SDS011;71036;51.102;6.514;2024-02-14T01:41:31;1.67;;;0.53;;
81627;SDS011;71036;51.102;6.514;2024-02-14T01:43:57;4.10;;;1.00;;
81627;SDS011;71036;51.102;6.514;2024-02-14T01:46:24;0.70;;;0.60;;
81627;SDS011;71036;51.102;6.514;2024-02-14T01:48:49;0.70;;;0.53;;
81627;SDS011;71036;51.102;6.514;2024-02-14T01:51:15;1.70;;;0.87;;
81627;SDS011;71036;51.102;6.514;2024-02-14T01:53:44;1.50;;;0.63;;
81627;SDS011;71036;51.102;6.514;2024-02-14T01:56:10;1.07;;;0.70;;
81627;SDS011;71036;51.102;6.514;2024-02-14T01:58:36;0.90;;;0.70;;
81627;SDS011;71036;51.102;6.514;2024-02-14T02:01:02;2.70;;;0.60;;
81627;SDS011;71036;51.102;6.514;2024-02-14T02:03:28;1.70;;;1.13;;
81627;SDS011;71036;51.102;6.514;2024-02-14T02:05:54;3.07;;;0.80;;
81627;SDS011;71036;51.102;6.514;2024-02-14T02:08:20;0.97;;;0.60;;
81627;SDS011;71036;51.102;6.514;2024-02-14T02:10:46;2.70;;;0.53;;
81627;SDS011;71036;51.102;6.514;2024-02-14T02:13:12;1.23;;;0.60;;
81627;SDS011;71036;51.102;6.514;2024-02-14T02:15:37;1.07;;;0.50;;
81627;SDS011;71036;51.102;6.514;2024-02-14T02:18:03;0.97;;;0.70;;
81627;SDS011;71036;51.102;6.514;2024-02-14T02:20:31;0.87;;;0.50;;
81627;SDS011;71036;51.102;6.514;2024-02-14T02:22:57;1.20;;;0.60;;
81627;SDS011;71036;51.102;6.514;2024-02-14T02:25:22;1.93;;;0.73;;
81627;SDS011;71036;51.102;6.514;2024-02-14T02:27:49;1.63;;;0.50;;
81627;SDS011;71036;51.102;6.514;2024-02-14T02:30:15;4.37;;;0.87;;
81627;SDS011;71036;51.102;6.514;2024-02-14T02:32:41;0.70;;;0.60;;
81627;SDS011;71036;51.102;6.514;2024-02-14T02:35:07;0.90;;;0.50;;
81627;SDS011;71036;51.102;6.514;2024-02-14T02:37:34;4.63;;;0.77;;
81627;SDS011;71036;51.102;6.514;2024-02-14T02:40:00;7.40;;;0.83;;
81627;SDS011;71036;51.102;6.514;2024-02-14T02:42:25;1.10;;;0.80;;
81627;SDS011;71036;51.102;6.514;2024-02-14T02:44:51;0.90;;;0.60;;
81627;SDS011;71036;51.102;6.514;2024-02-14T02:47:16;1.33;;;0.80;;
81627;SDS011;71036;51.102;6.514;2024-02-14T02:49:42;3.37;;;0.90;;
81627;SDS011;71036;51.102;6.514;2024-02-14T02:52:09;1.50;;;0.83;;
81627;SDS011;71036;51.102;6.514;2024-02-14T02:54:35;2.20;;;0.70;;
81627;SDS011;71036;51.102;6.514;2024-02-14T02:57:00;4.40;;;1.00;;
81627;SDS011;71036;51.102;6.514;2024-02-14T02:59:28;2.80;;;1.40;;
81627;SDS011;71036;51.102;6.514;2024-02-14T03:01:54;7.33;;;1.60;;
81627;SDS011;71036;51.102;6.514;2024-02-14T03:04:20;2.37;;;1.27;;
81627;SDS011;71036;51.102;6.514;2024-02-14T03:06:45;3.20;;;1.27;;
81627;SDS011;71036;51.102;6.514;2024-02-14T03:09:11;6.03;;;1.37;;
81627;SDS011;71036;51.102;6.514;2024-02-14T03:11:37;1.33;;;1.00;;
81627;SDS011;71036;51.102;6.514;2024-02-14T03:14:03;1.53;;;1.13;;
81627;SDS011;71036;51.102;6.514;2024-02-14T03:16:28;4.33;;;1.13;;
81627;SDS011;71036;51.102;6.514;2024-02-14T03:18:54;1.20;;;0.87;;
81627;SDS011;71036;51.102;6.514;2024-02-14T03:21:19;2.47;;;1.20;;
81627;SDS011;71036;51.102;6.514;2024-02-14T03:23:45;2.47;;;1.43;;
81627;SDS011;71036;51.102;6.514;2024-02-14T03:26:10;3.87;;;1.10;;
81627;SDS011;71036;51.102;6.514;2024-02-14T03:28:36;1.97;;;0.93;;
81627;SDS011;71036;51.102;6.514;2024-02-14T03:31:01;1.67;;;1.40;;
81627;SDS011;71036;51.102;6.514;2024-02-14T03:33:26;1.43;;;1.33;;
81627;SDS011;71036;51.102;6.514;2024-02-14T03:35:54;3.23;;;1.47;;
81627;SDS011;71036;51.102;6.514;2024-02-14T03:38:26;12.07;;;1.07;;
81627;SDS011;71036;51.102;6.514;2024-02-14T03:40:52;6.93;;;1.50;;
81627;SDS011;71036;51.102;6.514;2024-02-14T03:43:17;2.40;;;1.40;;
81627;SDS011;71036;51.102;6.514;2024-02-14T03:45:42;3.70;;;1.50;;
81627;SDS011;71036;51.102;6.514;2024-02-14T03:48:08;2.40;;;1.60;;
81627;SDS011;71036;51.102;6.514;2024-02-14T03:50:35;2.00;;;0.87;;
81627;SDS011;71036;51.102;6.514;2024-02-14T03:53:00;5.90;;;1.50;;
81627;SDS011;71036;51.102;6.514;2024-02-14T03:55:26;3.83;;;1.20;;
81627;SDS011;71036;51.102;6.514;2024-02-14T03:57:52;2.33;;;1.37;;
81627;SDS011;71036;51.102;6.514;2024-02-14T04:00:17;1.73;;;1.00;;
81627;SDS011;71036;51.102;6.514;2024-02-14T04:02:42;2.67;;;1.63;;
81627;SDS011;71036;51.102;6.514;2024-02-14T04:05:08;5.40;;;2.20;;
81627;SDS011;71036;51.102;6.514;2024-02-14T04:07:34;3.80;;;1.30;;
81627;SDS011;71036;51.102;6.514;2024-02-14T04:09:59;3.53;;;1.30;;
81627;SDS011;71036;51.102;6.514;2024-02-14T04:12:25;2.43;;;1.17;;
81627;SDS011;71036;51.102;6.514;2024-02-14T04:14:50;1.70;;;1.33;;
81627;SDS011;71036;51.102;6.514;2024-02-14T04:17:15;6.53;;;1.53;;
81627;SDS011;71036;51.102;6.514;2024-02-14T04:19:41;6.03;;;1.97;;
81627;SDS011;71036;51.102;6.514;2024-02-14T04:22:06;2.80;;;1.60;;
81627;SDS011;71036;51.102;6.514;2024-02-14T04:24:33;4.80;;;1.07;;
81627;SDS011;71036;51.102;6.514;2024-02-14T04:26:59;1.93;;;1.00;;
81627;SDS011;71036;51.102;6.514;2024-02-14T04:29:26;2.57;;;1.30;;
81627;SDS011;71036;51.102;6.514;2024-02-14T04:31:53;3.87;;;1.40;;
81627;SDS011;71036;51.102;6.514;2024-02-14T04:34:18;2.53;;;1.60;;
81627;SDS011;71036;51.102;6.514;2024-02-14T04:36:44;3.10;;;1.20;;
81627;SDS011;71036;51.102;6.514;2024-02-14T04:39:10;3.30;;;1.07;;
81627;SDS011;71036;51.102;6.514;2024-02-14T04:41:35;1.97;;;1.47;;
81627;SDS011;71036;51.102;6.514;2024-02-14T04:44:02;2.50;;;1.40;;
81627;SDS011;71036;51.102;6.514;2024-02-14T04:46:29;1.97;;;1.13;;
81627;SDS011;71036;51.102;6.514;2024-02-14T04:48:54;5.33;;;1.37;;
81627;SDS011;71036;51.102;6.514;2024-02-14T04:51:20;4.10;;;1.50;;
81627;SDS011;71036;51.102;6.514;2024-02-14T04:53:45;2.57;;;1.30;;
81627;SDS011;71036;51.102;6.514;2024-02-14T04:56:10;3.60;;;1.60;;
81627;SDS011;71036;51.102;6.514;2024-02-14T04:58:36;2.80;;;1.47;;
81627;SDS011;71036;51.102;6.514;2024-02-14T05:01:01;2.63;;;1.40;;
81627;SDS011;71036;51.102;6.514;2024-02-14T05:03:27;2.07;;;1.87;;
81627;SDS011;71036;51.102;6.514;2024-02-14T05:05:52;5.20;;;1.90;;
81627;SDS011;71036;51.102;6.514;2024-02-14T05:08:17;2.10;;;1.80;;
81627;SDS011;71036;51.102;6.514;2024-02-14T05:10:43;4.13;;;1.40;;
81627;SDS011;71036;51.102;6.514;2024-02-14T05:13:08;2.10;;;1.60;;
81627;SDS011;71036;51.102;6.514;2024-02-14T05:15:33;9.63;;;2.53;;
81627;SDS011;71036;51.102;6.514;2024-02-14T05:18:00;4.10;;;2.13;;
81627;SDS011;71036;51.102;6.514;2024-02-14T05:20:25;3.13;;;2.10;;
81627;SDS011;71036;51.102;6.514;2024-02-14T05:22:50;3.30;;;1.90;;
81627;SDS011;71036;51.102;6.514;2024-02-14T05:25:16;4.10;;;2.07;;
81627;SDS011;71036;51.102;6.514;2024-02-14T05:27:41;5.83;;;2.10;;
81627;SDS011;71036;51.102;6.514;2024-02-14T05:30:07;2.47;;;1.93;;
81627;SDS011;71036;51.102;6.514;2024-02-14T05:32:34;2.10;;;1.70;;
81627;SDS011;71036;51.102;6.514;2024-02-14T05:34:59;2.53;;;2.10;;
81627;SDS011;71036;51.102;6.514;2024-02-14T05:37:25;3.70;;;1.50;;
81627;SDS011;71036;51.102;6.514;2024-02-14T05:39:52;6.07;;;2.20;;
81627;SDS011;71036;51.102;6.514;2024-02-14T05:42:20;4.50;;;2.20;;
81627;SDS011;71036;51.102;6.514;2024-02-14T05:44:46;1.77;;;1.60;;
81627;SDS011;71036;51.102;6.514;2024-02-14T05:47:12;7.50;;;2.57;;
81627;SDS011;71036;51.102;6.514;2024-02-14T05:49:38;1.63;;;1.50;;
81627;SDS011;71036;51.102;6.514;2024-02-14T05:52:07;2.40;;;2.17;;
81627;SDS011;71036;51.102;6.514;2024-02-14T05:54:32;1.90;;;1.47;;
81627;SDS011;71036;51.102;6.514;2024-02-14T05:56:58;4.47;;;2.10;;
81627;SDS011;71036;51.102;6.514;2024-02-14T05:59:24;2.50;;;1.50;;
81627;SDS011;71036;51.102;6.514;2024-02-14T06:01:49;4.63;;;2.20;;
81627;SDS011;71036;51.102;6.514;2024-02-14T06:04:14;3.30;;;1.73;;
81627;SDS011;71036;51.102;6.514;2024-02-14T06:06:40;1.77;;;1.47;;
81627;SDS011;71036;51.102;6.514;2024-02-14T06:09:05;5.43;;;2.40;;
81627;SDS011;71036;51.102;6.514;2024-02-14T06:11:35;1.90;;;1.70;;
81627;SDS011;71036;51.102;6.514;2024-02-14T06:14:01;3.73;;;2.00;;
81627;SDS011;71036;51.102;6.514;2024-02-14T06:16:26;2.90;;;1.90;;
81627;SDS011;71036;51.102;6.514;2024-02-14T06:18:51;2.60;;;1.70;;
81627;SDS011;71036;51.102;6.514;2024-02-14T06:21:17;3.37;;;1.90;;
81627;SDS011;71036;51.102;6.514;2024-02-14T06:23:42;3.10;;;1.73;;
81627;SDS011;71036;51.102;6.514;2024-02-14T06:26:07;3.03;;;1.60;;
81627;SDS011;71036;51.102;6.514;2024-02-14T06:28:33;5.93;;;1.60;;
81627;SDS011;71036;51.102;6.514;2024-02-14T06:30:58;3.60;;;1.80;;
81627;SDS011;71036;51.102;6.514;2024-02-14T06:33:23;4.37;;;2.17;;
81627;SDS011;71036;51.102;6.514;2024-02-14T06:35:49;4.00;;;1.67;;
81627;SDS011;71036;51.102;6.514;2024-02-14T06:38:14;4.17;;;1.30;;
81627;SDS011;71036;51.102;6.514;2024-02-14T06:40:40;3.27;;;1.20;;
81627;SDS011;71036;51.102;6.514;2024-02-14T06:43:06;2.93;;;1.20;;
81627;SDS011;71036;51.102;6.514;2024-02-14T06:45:31;5.10;;;1.87;;
81627;SDS011;71036;51.102;6.514;2024-02-14T06:47:57;3.67;;;1.90;;
81627;SDS011;71036;51.102;6.514;2024-02-14T06:50:22;5.93;;;1.40;;
81627;SDS011;71036;51.102;6.514;2024-02-14T06:52:50;2.30;;;1.47;;
81627;SDS011;71036;51.102;6.514;2024-02-14T06:55:16;8.50;;;2.60;;
81627;SDS011;71036;51.102;6.514;2024-02-14T06:57:41;5.80;;;1.53;;
81627;SDS011;71036;51.102;6.514;2024-02-14T07:00:07;4.13;;;1.30;;
81627;SDS011;71036;51.102;6.514;2024-02-14T07:02:33;2.33;;;1.50;;
81627;SDS011;71036;51.102;6.514;2024-02-14T07:04:59;3.80;;;1.47;;
81627;SDS011;71036;51.102;6.514;2024-02-14T07:07:24;3.30;;;1.47;;
81627;SDS011;71036;51.102;6.514;2024-02-14T07:09:50;6.80;;;1.93;;
81627;SDS011;71036;51.102;6.514;2024-02-14T07:12:16;4.03;;;1.70;;
81627;SDS011;71036;51.102;6.514;2024-02-14T07:14:41;3.80;;;1.50;;
81627;SDS011;71036;51.102;6.514;2024-02-14T07:17:07;3.23;;;1.50;;
81627;SDS011;71036;51.102;6.514;2024-02-14T07:19:32;2.03;;;1.50;;
81627;SDS011;71036;51.102;6.514;2024-02-14T07:21:57;5.00;;;1.20;;
81627;SDS011;71036;51.102;6.514;2024-02-14T07:24:23;2.30;;;1.40;;
81627;SDS011;71036;51.102;6.514;2024-02-14T07:26:48;3.30;;;1.40;;
81627;SDS011;71036;51.102;6.514;2024-02-14T07:29:13;2.57;;;1.40;;
81627;SDS011;71036;51.102;6.514;2024-02-14T07:31:39;2.20;;;1.47;;
81627;SDS011;71036;51.102;6.514;2024-02-14T07:34:04;1.20;;;1.00;;
81627;SDS011;71036;51.102;6.514;2024-02-14T07:36:30;5.63;;;1.80;;
81627;SDS011;71036;51.102;6.514;2024-02-14T07:38:55;4.93;;;2.30;;
81627;SDS011;71036;51.102;6.514;2024-02-14T07:41:21;2.17;;;1.67;;
81627;SDS011;71036;51.102;6.514;2024-02-14T07:43:46;3.80;;;1.70;;
81627;SDS011;71036;51.102;6.514;2024-02-14T07:46:16;6.80;;;1.43;;
81627;SDS011;71036;51.102;6.514;2024-02-14T07:48:42;8.90;;;2.30;;
81627;SDS011;71036;51.102;6.514;2024-02-14T07:51:07;3.80;;;1.10;;
81627;SDS011;71036;51.102;6.514;2024-02-14T07:53:33;1.40;;;0.90;;
81627;SDS011;71036;51.102;6.514;2024-02-14T07:55:58;3.70;;;1.10;;
81627;SDS011;71036;51.102;6.514;2024-02-14T07:58:23;8.60;;;1.43;;
81627;SDS011;71036;51.102;6.514;2024-02-14T08:00:49;7.43;;;1.40;;
81627;SDS011;71036;51.102;6.514;2024-02-14T08:03:14;1.93;;;1.27;;
81627;SDS011;71036;51.102;6.514;2024-02-14T08:05:39;1.80;;;1.10;;
81627;SDS011;71036;51.102;6.514;2024-02-14T08:08:06;3.63;;;1.90;;
81627;SDS011;71036;51.102;6.514;2024-02-14T08:10:31;4.40;;;1.60;;
81627;SDS011;71036;51.102;6.514;2024-02-14T08:12:57;2.10;;;1.50;;
81627;SDS011;71036;51.102;6.514;2024-02-14T08:15:23;7.40;;;1.50;;
81627;SDS011;71036;51.102;6.514;2024-02-14T08:17:49;4.33;;;1.33;;
81627;SDS011;71036;51.102;6.514;2024-02-14T08:20:14;2.80;;;1.30;;
81627;SDS011;71036;51.102;6.514;2024-02-14T08:22:39;4.67;;;1.00;;
81627;SDS011;71036;51.102;6.514;2024-02-14T08:25:05;4.00;;;1.87;;
81627;SDS011;71036;51.102;6.514;2024-02-14T08:27:30;1.30;;;1.20;;
81627;SDS011;71036;51.102;6.514;2024-02-14T08:29:56;4.47;;;0.93;;
81627;SDS011;71036;51.102;6.514;2024-02-14T08:32:22;2.57;;;1.43;;
81627;SDS011;71036;51.102;6.514;2024-02-14T08:34:47;3.60;;;1.27;;
81627;SDS011;71036;51.102;6.514;2024-02-14T08:37:13;8.23;;;1.50;;
81627;SDS011;71036;51.102;6.514;2024-02-14T08:39:38;2.50;;;1.43;;
81627;SDS011;71036;51.102;6.514;2024-02-14T08:42:03;11.60;;;1.30;;
81627;SDS011;71036;51.102;6.514;2024-02-14T08:44:35;9.33;;;1.33;;
81627;SDS011;71036;51.102;6.514;2024-02-14T08:47:02;14.23;;;1.07;;
81627;SDS011;71036;51.102;6.514;2024-02-14T08:49:28;8.90;;;1.60;;
81627;SDS011;71036;51.102;6.514;2024-02-14T08:51:53;1.57;;;0.83;;
81627;SDS011;71036;51.102;6.514;2024-02-14T08:54:19;3.57;;;0.87;;
81627;SDS011;71036;51.102;6.514;2024-02-14T08:56:46;6.13;;;1.10;;
81627;SDS011;71036;51.102;6.514;2024-02-14T08:59:11;7.80;;;1.03;;
81627;SDS011;71036;51.102;6.514;2024-02-14T09:01:37;2.43;;;0.67;;
81627;SDS011;71036;51.102;6.514;2024-02-14T09:04:03;3.43;;;1.10;;
81627;SDS011;71036;51.102;6.514;2024-02-14T09:06:28;5.07;;;1.10;;
81627;SDS011;71036;51.102;6.514;2024-02-14T09:08:54;5.20;;;0.97;;
81627;SDS011;71036;51.102;6.514;2024-02-14T09:11:19;2.63;;;1.30;;
81627;SDS011;71036;51.102;6.514;2024-02-14T09:13:45;2.73;;;1.13;;
81627;SDS011;71036;51.102;6.514;2024-02-14T09:16:16;2.87;;;0.80;;
81627;SDS011;71036;51.102;6.514;2024-02-14T09:18:41;1.60;;;1.00;;
81627;SDS011;71036;51.102;6.514;2024-02-14T09:21:07;7.53;;;1.10;;
81627;SDS011;71036;51.102;6.514;2024-02-14T09:23:33;3.63;;;1.13;;
81627;SDS011;71036;51.102;6.514;2024-02-14T09:25:59;1.33;;;0.67;;
81627;SDS011;71036;51.102;6.514;2024-02-14T09:28:24;4.90;;;1.07;;
81627;SDS011;71036;51.102;6.514;2024-02-14T09:30:50;4.77;;;1.07;;
81627;SDS011;71036;51.102;6.514;2024-02-14T09:33:15;4.93;;;1.17;;
81627;SDS011;71036;51.102;6.514;2024-02-14T09:35:41;7.60;;;1.50;;
81627;SDS011;71036;51.102;6.514;2024-02-14T09:38:10;7.10;;;1.67;;
81627;SDS011;71036;51.102;6.514;2024-02-14T09:40:37;8.93;;;1.50;;
81627;SDS011;71036;51.102;6.514;2024-02-14T09:43:04;5.60;;;0.87;;
81627;SDS011;71036;51.102;6.514;2024-02-14T09:45:35;18.80;;;1.53;;
81627;SDS011;71036;51.102;6.514;2024-02-14T09:48:01;1.47;;;0.67;;
81627;SDS011;71036;51.102;6.514;2024-02-14T09:50:28;2.37;;;0.80;;
81627;SDS011;71036;51.102;6.514;2024-02-14T09:52:56;3.10;;;0.70;;
81627;SDS011;71036;51.102;6.514;2024-02-14T09:55:22;2.20;;;0.87;;
81627;SDS011;71036;51.102;6.514;2024-02-14T09:57:49;2.80;;;0.93;;
81627;SDS011;71036;51.102;6.514;2024-02-14T10:00:15;2.07;;;0.73;;
81627;SDS011;71036;51.102;6.514;2024-02-14T10:02:41;1.63;;;0.90;;
81627;SDS011;71036;51.102;6.514;2024-02-14T10:05:06;8.13;;;1.30;;
81627;SDS011;71036;51.102;6.514;2024-02-14T10:07:42;2.47;;;1.10;;
81627;SDS011;71036;51.102;6.514;2024-02-14T10:10:08;4.73;;;1.00;;
81627;SDS011;71036;51.102;6.514;2024-02-14T10:12:34;5.30;;;1.30;;
81627;SDS011;71036;51.102;6.514;2024-02-14T10:15:00;4.83;;;1.40;;
81627;SDS011;71036;51.102;6.514;2024-02-14T10:17:27;3.50;;;1.20;;
81627;SDS011;71036;51.102;6.514;2024-02-14T10:19:56;1.73;;;0.80;;
81627;SDS011;71036;51.102;6.514;2024-02-14T10:22:22;5.20;;;0.87;;
81627;SDS011;71036;51.102;6.514;2024-02-14T10:24:47;5.00;;;2.13;;
81627;SDS011;71036;51.102;6.514;2024-02-14T10:27:13;2.83;;;1.03;;
81627;SDS011;71036;51.102;6.514;2024-02-14T10:29:40;3.10;;;1.13;;
81627;SDS011;71036;51.102;6.514;2024-02-14T10:32:05;5.23;;;1.20;;
81627;SDS011;71036;51.102;6.514;2024-02-14T10:34:31;4.60;;;1.33;;
81627;SDS011;71036;51.102;6.514;2024-02-14T10:36:58;2.03;;;1.00;;
81627;SDS011;71036;51.102;6.514;2024-02-14T10:39:26;8.20;;;1.07;;
81627;SDS011;71036;51.102;6.514;2024-02-14T10:41:51;3.37;;;1.13;;
81627;SDS011;71036;51.102;6.514;2024-02-14T10:44:17;4.50;;;1.30;;
81627;SDS011;71036;51.102;6.514;2024-02-14T10:46:44;3.37;;;0.80;;
81627;SDS011;71036;51.102;6.514;2024-02-14T10:49:11;3.50;;;0.67;;
81627;SDS011;71036;51.102;6.514;2024-02-14T10:51:40;8.70;;;1.10;;
81627;SDS011;71036;51.102;6.514;2024-02-14T10:54:10;0.70;;;0.50;;
81627;SDS011;71036;51.102;6.514;2024-02-14T10:56:38;3.13;;;0.87;;
81627;SDS011;71036;51.102;6.514;2024-02-14T10:59:07;5.43;;;0.80;;
81627;SDS011;71036;51.102;6.514;2024-02-14T11:01:35;3.63;;;0.90;;
81627;SDS011;71036;51.102;6.514;2024-02-14T11:04:01;7.00;;;0.87;;
81627;SDS011;71036;51.102;6.514;2024-02-14T11:06:29;3.53;;;1.10;;
81627;SDS011;71036;51.102;6.514;2024-02-14T11:08:58;3.77;;;0.90;;
81627;SDS011;71036;51.102;6.514;2024-02-14T11:11:28;5.63;;;0.73;;
81627;SDS011;71036;51.102;6.514;2024-02-14T11:13:55;2.43;;;0.87;;
81627;SDS011;71036;51.102;6.514;2024-02-14T11:16:27;2.87;;;0.77;;
81627;SDS011;71036;51.102;6.514;2024-02-14T11:19:14;7.50;;;1.10;;
81627;SDS011;71036;51.102;6.514;2024-02-14T11:21:41;3.13;;;1.10;;
81627;SDS011;71036;51.102;6.514;2024-02-14T11:24:12;2.20;;;0.70;;
81627;SDS011;71036;51.102;6.514;2024-02-14T11:26:49;2.23;;;0.70;;
81627;SDS011;71036;51.102;6.514;2024-02-14T11:29:17;1.37;;;0.70;;
81627;SDS011;71036;51.102;6.514;2024-02-14T11:31:43;6.63;;;1.23;;
81627;SDS011;71036;51.102;6.514;2024-02-14T11:34:12;10.87;;;0.80;;
81627;SDS011;71036;51.102;6.514;2024-02-14T11:36:39;2.73;;;0.80;;
81627;SDS011;71036;51.102;6.514;2024-02-14T11:39:06;4.10;;;1.50;;
81627;SDS011;71036;51.102;6.514;2024-02-14T11:41:32;3.10;;;0.80;;
81627;SDS011;71036;51.102;6.514;2024-02-14T11:44:02;7.20;;;0.87;;
81627;SDS011;71036;51.102;6.514;2024-02-14T11:46:34;4.93;;;0.90;;
81627;SDS011;71036;51.102;6.514;2024-02-14T11:49:04;5.90;;;0.80;;
81627;SDS011;71036;51.102;6.514;2024-02-14T11:51:30;1.43;;;0.50;;
81627;SDS011;71036;51.102;6.514;2024-02-14T11:53:58;7.23;;;1.03;;
81627;SDS011;71036;51.102;6.514;2024-02-14T11:56:32;2.70;;;0.60;;
81627;SDS011;71036;51.102;6.514;2024-02-14T11:59:02;1.83;;;1.10;;
81627;SDS011;71036;51.102;6.514;2024-02-14T12:01:33;1.17;;;0.60;;
81627;SDS011;71036;51.102;6.514;2024-02-14T12:03:59;2.03;;;0.70;;
81627;SDS011;71036;51.102;6.514;2024-02-14T12:06:27;5.90;;;1.00;;
81627;SDS011;71036;51.102;6.514;2024-02-14T12:08:53;1.10;;;0.90;;
81627;SDS011;71036;51.102;6.514;2024-02-14T12:11:20;3.57;;;0.90;;
81627;SDS011;71036;51.102;6.514;2024-02-14T12:13:49;3.37;;;1.27;;
81627;SDS011;71036;51.102;6.514;2024-02-14T12:16:15;2.43;;;0.90;;
81627;SDS011;71036;51.102;6.514;2024-02-14T12:18:41;2.80;;;0.70;;
81627;SDS011;71036;51.102;6.514;2024-02-14T12:21:06;4.00;;;1.20;;
81627;SDS011;71036;51.102;6.514;2024-02-14T12:23:32;3.43;;;1.20;;
81627;SDS011;71036;51.102;6.514;2024-02-14T12:26:01;2.67;;;1.10;;
81627;SDS011;71036;51.102;6.514;2024-02-14T12:28:28;3.50;;;1.17;;
81627;SDS011;71036;51.102;6.514;2024-02-14T12:30:55;8.73;;;1.93;;
81627;SDS011;71036;51.102;6.514;2024-02-14T12:33:24;2.00;;;1.00;;
81627;SDS011;71036;51.102;6.514;2024-02-14T12:35:51;2.00;;;1.40;;
81627;SDS011;71036;51.102;6.514;2024-02-14T12:38:18;5.97;;;0.80;;
81627;SDS011;71036;51.102;6.514;2024-02-14T12:40:44;2.50;;;0.90;;
81627;SDS011;71036;51.102;6.514;2024-02-14T12:43:11;2.60;;;0.90;;
81627;SDS011;71036;51.102;6.514;2024-02-14T12:45:38;3.30;;;1.00;;
81627;SDS011;71036;51.102;6.514;2024-02-14T12:48:04;5.87;;;0.80;;
81627;SDS011;71036;51.102;6.514;2024-02-14T12:50:31;1.43;;;0.40;;
81627;SDS011;71036;51.102;6.514;2024-02-14T12:52:57;1.13;;;0.40;;
81627;SDS011;71036;51.102;6.514;2024-02-14T12:55:22;1.83;;;0.67;;
81627;SDS011;71036;51.102;6.514;2024-02-14T12:57:50;1.20;;;0.67;;
81627;SDS011;71036;51.102;6.514;2024-02-14T13:00:16;4.20;;;0.77;;
81627;SDS011;71036;51.102;6.514;2024-02-14T13:02:41;1.67;;;0.53;;
81627;SDS011;71036;51.102;6.514;2024-02-14T13:05:07;0.77;;;0.53;;
81627;SDS011;71036;51.102;6.514;2024-02-14T13:07:33;2.63;;;0.50;;
81627;SDS011;71036;51.102;6.514;2024-02-14T13:09:59;4.63;;;0.87;;
81627;SDS011;71036;51.102;6.514;2024-02-14T13:12:25;4.30;;;1.00;;
81627;SDS011;71036;51.102;6.514;2024-02-14T13:14:51;3.43;;;0.50;;
81627;SDS011;71036;51.102;6.514;2024-02-14T13:17:16;1.57;;;0.50;;
81627;SDS011;71036;51.102;6.514;2024-02-14T13:19:41;9.77;;;0.53;;
81627;SDS011;71036;51.102;6.514;2024-02-14T13:22:08;0.57;;;0.40;;
81627;SDS011;71036;51.102;6.514;2024-02-14T13:24:33;0.83;;;0.50;;
81627;SDS011;71036;51.102;6.514;2024-02-14T13:26:58;1.60;;;0.60;;
81627;SDS011;71036;51.102;6.514;2024-02-14T13:29:24;0.67;;;0.50;;
81627;SDS011;71036;51.102;6.514;2024-02-14T13:31:49;2.30;;;0.50;;
81627;SDS011;71036;51.102;6.514;2024-02-14T13:34:15;1.20;;;0.43;;
81627;SDS011;71036;51.102;6.514;2024-02-14T13:36:41;0.80;;;0.40;;
81627;SDS011;71036;51.102;6.514;2024-02-14T13:39:07;0.50;;;0.40;;
81627;SDS011;71036;51.102;6.514;2024-02-14T13:41:33;0.90;;;0.40;;
81627;SDS011;71036;51.102;6.514;2024-02-14T13:43:58;2.97;;;0.60;;
81627;SDS011;71036;51.102;6.514;2024-02-14T13:46:23;6.43;;;0.50;;
81627;SDS011;71036;51.102;6.514;2024-02-14T13:48:51;3.10;;;0.53;;
81627;SDS011;71036;51.102;6.514;2024-02-14T13:51:16;0.77;;;0.30;;
81627;SDS011;71036;51.102;6.514;2024-02-14T13:53:42;8.27;;;0.70;;
81627;SDS011;71036;51.102;6.514;2024-02-14T13:56:08;0.63;;;0.40;;
81627;SDS011;71036;51.102;6.514;2024-02-14T13:58:33;0.60;;;0.40;;
81627;SDS011;71036;51.102;6.514;2024-02-14T14:00:58;3.13;;;0.50;;
81627;SDS011;71036;51.102;6.514;2024-02-14T14:03:24;0.70;;;0.40;;
81627;SDS011;71036;51.102;6.514;2024-02-14T14:05:49;0.60;;;0.40;;
81627;SDS011;71036;51.102;6.514;2024-02-14T14:08:15;2.80;;;0.50;;
81627;SDS011;71036;51.102;6.514;2024-02-14T14:10:40;0.60;;;0.33;;
81627;SDS011;71036;51.102;6.514;2024-02-14T14:13:08;1.00;;;0.60;;
81627;SDS011;71036;51.102;6.514;2024-02-14T14:15:33;1.00;;;0.70;;
81627;SDS011;71036;51.102;6.514;2024-02-14T14:17:59;0.70;;;0.30;;
81627;SDS011;71036;51.102;6.514;2024-02-14T14:20:24;0.50;;;0.40;;
81627;SDS011;71036;51.102;6.514;2024-02-14T14:22:49;1.53;;;0.40;;
81627;SDS011;71036;51.102;6.514;2024-02-14T14:25:15;0.60;;;0.30;;
81627;SDS011;71036;51.102;6.514;2024-02-14T14:27:40;0.93;;;0.50;;
81627;SDS011;71036;51.102;6.514;2024-02-14T14:30:06;0.87;;;0.60;;
81627;SDS011;71036;51.102;6.514;2024-02-14T14:32:32;0.73;;;0.73;;
81627;SDS011;71036;51.102;6.514;2024-02-14T14:34:57;1.47;;;0.70;;
81627;SDS011;71036;51.102;6.514;2024-02-14T14:37:23;0.50;;;0.40;;
81627;SDS011;71036;51.102;6.514;2024-02-14T14:39:48;2.20;;;0.60;;
81627;SDS011;71036;51.102;6.514;2024-02-14T14:42:13;0.70;;;0.60;;